sensor_id;sensor_type;location;lat;lon;timestamp;P1;durP1;ratioP1;P2;durP2;ratioP2
48685;SDS011;34485;51.536;3.816;2023-07-02T00:01:04;10.87;;;5.00;;
48685;SDS011;34485;51.536;3.816;2023-07-02T00:03:30;14.03;;;5.47;;
48685;SDS011;34485;51.536;3.816;2023-07-02T00:05:55;12.02;;;5.35;;
48685;SDS011;34485;51.536;3.816;2023-07-02T00:08:22;11.43;;;5.95;;
48685;SDS011;34485;51.536;3.816;2023-07-02T00:10:48;11.37;;;6.30;;
48685;SDS011;34485;51.536;3.816;2023-07-02T00:13:14;10.80;;;5.57;;
48685;SDS011;34485;51.536;3.816;2023-07-02T00:15:40;13.33;;;5.60;;
48685;SDS011;34485;51.536;3.816;2023-07-02T00:18:06;11.93;;;6.03;;
48685;SDS011;34485;51.536;3.816;2023-07-02T00:20:33;15.35;;;7.13;;
48685;SDS011;34485;51.536;3.816;2023-07-02T00:23:05;27.97;;;6.83;;
48685;SDS011;34485;51.536;3.816;2023-07-02T00:25:33;18.27;;;6.18;;
48685;SDS011;34485;51.536;3.816;2023-07-02T00:27:59;13.57;;;6.25;;
48685;SDS011;34485;51.536;3.816;2023-07-02T00:30:25;8.70;;;5.63;;
48685;SDS011;34485;51.536;3.816;2023-07-02T00:32:51;8.98;;;5.60;;
48685;SDS011;34485;51.536;3.816;2023-07-02T00:35:16;12.50;;;5.43;;
48685;SDS011;34485;51.536;3.816;2023-07-02T00:37:42;12.68;;;6.10;;
48685;SDS011;34485;51.536;3.816;2023-07-02T00:40:07;11.10;;;6.63;;
48685;SDS011;34485;51.536;3.816;2023-07-02T00:42:33;14.48;;;6.47;;
48685;SDS011;34485;51.536;3.816;2023-07-02T00:44:59;12.77;;;5.00;;
48685;SDS011;34485;51.536;3.816;2023-07-02T00:47:28;13.70;;;6.05;;
48685;SDS011;34485;51.536;3.816;2023-07-02T00:49:58;16.92;;;6.18;;
48685;SDS011;34485;51.536;3.816;2023-07-02T00:52:24;12.30;;;6.00;;
48685;SDS011;34485;51.536;3.816;2023-07-02T00:54:51;17.80;;;6.37;;
48685;SDS011;34485;51.536;3.816;2023-07-02T00:57:16;15.65;;;5.40;;
48685;SDS011;34485;51.536;3.816;2023-07-02T00:59:42;16.80;;;5.82;;
48685;SDS011;34485;51.536;3.816;2023-07-02T01:02:08;11.87;;;5.83;;
48685;SDS011;34485;51.536;3.816;2023-07-02T01:04:33;15.85;;;5.43;;
48685;SDS011;34485;51.536;3.816;2023-07-02T01:06:59;14.10;;;6.27;;
48685;SDS011;34485;51.536;3.816;2023-07-02T01:09:25;8.77;;;5.30;;
48685;SDS011;34485;51.536;3.816;2023-07-02T01:11:53;16.35;;;7.07;;
48685;SDS011;34485;51.536;3.816;2023-07-02T01:16:51;15.23;;;6.07;;
48685;SDS011;34485;51.536;3.816;2023-07-02T01:19:20;15.15;;;6.25;;
48685;SDS011;34485;51.536;3.816;2023-07-02T01:21:52;10.13;;;5.47;;
48685;SDS011;34485;51.536;3.816;2023-07-02T01:24:18;11.77;;;6.22;;
48685;SDS011;34485;51.536;3.816;2023-07-02T01:26:46;15.82;;;6.72;;
48685;SDS011;34485;51.536;3.816;2023-07-02T01:29:15;13.17;;;6.10;;
48685;SDS011;34485;51.536;3.816;2023-07-02T01:31:44;14.80;;;5.95;;
48685;SDS011;34485;51.536;3.816;2023-07-02T01:34:11;11.80;;;4.93;;
48685;SDS011;34485;51.536;3.816;2023-07-02T01:36:37;16.30;;;5.68;;
48685;SDS011;34485;51.536;3.816;2023-07-02T01:39:03;12.25;;;5.30;;
48685;SDS011;34485;51.536;3.816;2023-07-02T01:41:29;16.47;;;5.87;;
48685;SDS011;34485;51.536;3.816;2023-07-02T01:43:54;13.38;;;6.05;;
48685;SDS011;34485;51.536;3.816;2023-07-02T01:46:20;13.00;;;5.43;;
48685;SDS011;34485;51.536;3.816;2023-07-02T01:48:46;8.23;;;5.45;;
48685;SDS011;34485;51.536;3.816;2023-07-02T01:51:12;11.30;;;5.78;;
48685;SDS011;34485;51.536;3.816;2023-07-02T01:53:38;15.13;;;5.50;;
48685;SDS011;34485;51.536;3.816;2023-07-02T01:56:04;17.27;;;6.03;;
48685;SDS011;34485;51.536;3.816;2023-07-02T01:58:30;11.63;;;4.60;;
48685;SDS011;34485;51.536;3.816;2023-07-02T02:00:55;11.10;;;4.95;;
48685;SDS011;34485;51.536;3.816;2023-07-02T02:03:21;13.27;;;6.67;;
48685;SDS011;34485;51.536;3.816;2023-07-02T02:05:47;16.48;;;6.93;;
48685;SDS011;34485;51.536;3.816;2023-07-02T02:08:13;12.87;;;5.83;;
48685;SDS011;34485;51.536;3.816;2023-07-02T02:10:38;13.50;;;6.78;;
48685;SDS011;34485;51.536;3.816;2023-07-02T02:13:04;19.13;;;5.77;;
48685;SDS011;34485;51.536;3.816;2023-07-02T02:15:30;14.65;;;5.45;;
48685;SDS011;34485;51.536;3.816;2023-07-02T02:17:55;20.33;;;6.07;;
48685;SDS011;34485;51.536;3.816;2023-07-02T02:20:21;13.52;;;6.35;;
48685;SDS011;34485;51.536;3.816;2023-07-02T02:22:47;12.10;;;5.00;;
48685;SDS011;34485;51.536;3.816;2023-07-02T02:25:12;12.18;;;6.22;;
48685;SDS011;34485;51.536;3.816;2023-07-02T02:27:38;11.63;;;5.50;;
48685;SDS011;34485;51.536;3.816;2023-07-02T02:30:04;17.92;;;6.15;;
48685;SDS011;34485;51.536;3.816;2023-07-02T02:32:31;13.52;;;6.68;;
48685;SDS011;34485;51.536;3.816;2023-07-02T02:34:57;14.43;;;5.90;;
48685;SDS011;34485;51.536;3.816;2023-07-02T02:37:22;20.93;;;6.37;;
48685;SDS011;34485;51.536;3.816;2023-07-02T02:39:48;19.63;;;6.18;;
48685;SDS011;34485;51.536;3.816;2023-07-02T02:42:14;15.25;;;5.82;;
48685;SDS011;34485;51.536;3.816;2023-07-02T02:44:40;15.10;;;6.67;;
48685;SDS011;34485;51.536;3.816;2023-07-02T02:47:06;15.70;;;5.77;;
48685;SDS011;34485;51.536;3.816;2023-07-02T02:49:31;14.05;;;7.55;;
48685;SDS011;34485;51.536;3.816;2023-07-02T02:51:57;14.50;;;5.90;;
48685;SDS011;34485;51.536;3.816;2023-07-02T02:54:22;8.90;;;5.32;;
48685;SDS011;34485;51.536;3.816;2023-07-02T02:56:48;15.77;;;6.00;;
48685;SDS011;34485;51.536;3.816;2023-07-02T02:59:14;16.07;;;7.00;;
48685;SDS011;34485;51.536;3.816;2023-07-02T03:01:39;12.40;;;5.57;;
48685;SDS011;34485;51.536;3.816;2023-07-02T03:04:05;13.33;;;6.40;;
48685;SDS011;34485;51.536;3.816;2023-07-02T03:06:33;16.77;;;5.72;;
48685;SDS011;34485;51.536;3.816;2023-07-02T03:08:58;11.57;;;5.85;;
48685;SDS011;34485;51.536;3.816;2023-07-02T03:11:24;13.97;;;5.53;;
48685;SDS011;34485;51.536;3.816;2023-07-02T03:13:50;15.70;;;6.35;;
48685;SDS011;34485;51.536;3.816;2023-07-02T03:16:15;19.67;;;5.50;;
48685;SDS011;34485;51.536;3.816;2023-07-02T03:18:41;16.23;;;6.07;;
48685;SDS011;34485;51.536;3.816;2023-07-02T03:21:06;13.88;;;6.10;;
48685;SDS011;34485;51.536;3.816;2023-07-02T03:23:32;14.67;;;6.83;;
48685;SDS011;34485;51.536;3.816;2023-07-02T03:25:58;14.70;;;5.87;;
48685;SDS011;34485;51.536;3.816;2023-07-02T03:28:23;9.50;;;5.57;;
48685;SDS011;34485;51.536;3.816;2023-07-02T03:30:49;13.87;;;5.90;;
48685;SDS011;34485;51.536;3.816;2023-07-02T03:33:14;14.95;;;6.32;;
48685;SDS011;34485;51.536;3.816;2023-07-02T03:35:40;12.47;;;5.70;;
48685;SDS011;34485;51.536;3.816;2023-07-02T03:38:05;13.60;;;6.15;;
48685;SDS011;34485;51.536;3.816;2023-07-02T03:40:31;12.37;;;5.67;;
48685;SDS011;34485;51.536;3.816;2023-07-02T03:42:57;13.18;;;5.43;;
48685;SDS011;34485;51.536;3.816;2023-07-02T03:45:22;14.20;;;6.33;;
48685;SDS011;34485;51.536;3.816;2023-07-02T03:47:48;11.63;;;4.83;;
48685;SDS011;34485;51.536;3.816;2023-07-02T03:50:14;9.38;;;5.13;;
48685;SDS011;34485;51.536;3.816;2023-07-02T03:52:39;18.43;;;6.30;;
48685;SDS011;34485;51.536;3.816;2023-07-02T03:55:05;12.02;;;5.25;;
48685;SDS011;34485;51.536;3.816;2023-07-02T03:57:31;11.60;;;5.47;;
48685;SDS011;34485;51.536;3.816;2023-07-02T03:59:57;16.52;;;5.55;;
48685;SDS011;34485;51.536;3.816;2023-07-02T04:02:22;11.87;;;6.13;;
48685;SDS011;34485;51.536;3.816;2023-07-02T04:04:48;13.70;;;5.80;;
48685;SDS011;34485;51.536;3.816;2023-07-02T04:07:13;13.13;;;5.53;;
48685;SDS011;34485;51.536;3.816;2023-07-02T04:09:39;15.95;;;6.10;;
48685;SDS011;34485;51.536;3.816;2023-07-02T04:12:05;13.40;;;4.93;;
48685;SDS011;34485;51.536;3.816;2023-07-02T04:14:31;17.15;;;6.93;;
48685;SDS011;34485;51.536;3.816;2023-07-02T04:16:56;11.40;;;5.20;;
48685;SDS011;34485;51.536;3.816;2023-07-02T04:19:22;18.42;;;5.97;;
48685;SDS011;34485;51.536;3.816;2023-07-02T04:21:47;15.37;;;5.80;;
48685;SDS011;34485;51.536;3.816;2023-07-02T04:24:13;13.53;;;5.80;;
48685;SDS011;34485;51.536;3.816;2023-07-02T04:26:39;14.32;;;4.80;;
48685;SDS011;34485;51.536;3.816;2023-07-02T04:29:07;15.18;;;5.88;;
48685;SDS011;34485;51.536;3.816;2023-07-02T04:31:36;14.82;;;4.90;;
48685;SDS011;34485;51.536;3.816;2023-07-02T04:34:02;10.13;;;4.63;;
48685;SDS011;34485;51.536;3.816;2023-07-02T04:36:28;7.65;;;4.03;;
48685;SDS011;34485;51.536;3.816;2023-07-02T04:38:53;13.82;;;5.10;;
48685;SDS011;34485;51.536;3.816;2023-07-02T04:41:19;12.07;;;4.23;;
48685;SDS011;34485;51.536;3.816;2023-07-02T04:43:45;11.85;;;4.47;;
48685;SDS011;34485;51.536;3.816;2023-07-02T04:46:11;7.63;;;4.67;;
48685;SDS011;34485;51.536;3.816;2023-07-02T04:48:37;14.07;;;4.70;;
48685;SDS011;34485;51.536;3.816;2023-07-02T04:51:03;8.05;;;3.72;;
48685;SDS011;34485;51.536;3.816;2023-07-02T04:53:29;12.90;;;4.87;;
48685;SDS011;34485;51.536;3.816;2023-07-02T04:55:55;9.95;;;4.55;;
48685;SDS011;34485;51.536;3.816;2023-07-02T04:58:22;10.70;;;5.03;;
48685;SDS011;34485;51.536;3.816;2023-07-02T05:00:48;11.93;;;3.77;;
48685;SDS011;34485;51.536;3.816;2023-07-02T05:03:13;11.77;;;4.65;;
48685;SDS011;34485;51.536;3.816;2023-07-02T05:05:39;7.53;;;4.33;;
48685;SDS011;34485;51.536;3.816;2023-07-02T05:08:05;8.98;;;4.60;;
48685;SDS011;34485;51.536;3.816;2023-07-02T05:10:30;11.00;;;4.80;;
48685;SDS011;34485;51.536;3.816;2023-07-02T05:12:56;7.73;;;4.30;;
48685;SDS011;34485;51.536;3.816;2023-07-02T05:15:23;9.33;;;4.73;;
48685;SDS011;34485;51.536;3.816;2023-07-02T05:17:48;9.45;;;4.75;;
48685;SDS011;34485;51.536;3.816;2023-07-02T05:20:14;9.47;;;4.20;;
48685;SDS011;34485;51.536;3.816;2023-07-02T05:22:40;12.23;;;4.22;;
48685;SDS011;34485;51.536;3.816;2023-07-02T05:25:05;12.50;;;5.33;;
48685;SDS011;34485;51.536;3.816;2023-07-02T05:27:31;10.30;;;4.78;;
48685;SDS011;34485;51.536;3.816;2023-07-02T05:29:57;8.73;;;4.07;;
48685;SDS011;34485;51.536;3.816;2023-07-02T05:32:22;9.23;;;4.43;;
48685;SDS011;34485;51.536;3.816;2023-07-02T05:34:48;9.60;;;4.27;;
48685;SDS011;34485;51.536;3.816;2023-07-02T05:37:14;16.42;;;4.85;;
48685;SDS011;34485;51.536;3.816;2023-07-02T05:39:39;11.07;;;5.33;;
48685;SDS011;34485;51.536;3.816;2023-07-02T05:42:05;13.88;;;5.38;;
48685;SDS011;34485;51.536;3.816;2023-07-02T05:44:31;9.27;;;5.13;;
48685;SDS011;34485;51.536;3.816;2023-07-02T05:46:56;13.63;;;4.90;;
48685;SDS011;34485;51.536;3.816;2023-07-02T05:49:22;8.57;;;3.67;;
48685;SDS011;34485;51.536;3.816;2023-07-02T05:51:47;10.00;;;4.77;;
48685;SDS011;34485;51.536;3.816;2023-07-02T05:54:13;10.10;;;4.60;;
48685;SDS011;34485;51.536;3.816;2023-07-02T05:56:39;12.83;;;4.87;;
48685;SDS011;34485;51.536;3.816;2023-07-02T05:59:04;8.25;;;3.80;;
48685;SDS011;34485;51.536;3.816;2023-07-02T06:01:30;11.10;;;4.10;;
48685;SDS011;34485;51.536;3.816;2023-07-02T06:03:55;15.77;;;4.80;;
48685;SDS011;34485;51.536;3.816;2023-07-02T06:06:21;9.30;;;4.88;;
48685;SDS011;34485;51.536;3.816;2023-07-02T06:08:50;9.68;;;4.00;;
48685;SDS011;34485;51.536;3.816;2023-07-02T06:11:16;7.03;;;4.27;;
48685;SDS011;34485;51.536;3.816;2023-07-02T06:13:42;7.93;;;4.47;;
48685;SDS011;34485;51.536;3.816;2023-07-02T06:16:07;6.97;;;3.60;;
48685;SDS011;34485;51.536;3.816;2023-07-02T06:18:33;9.05;;;4.45;;
48685;SDS011;34485;51.536;3.816;2023-07-02T06:20:59;8.87;;;4.27;;
48685;SDS011;34485;51.536;3.816;2023-07-02T06:23:25;9.93;;;4.57;;
48685;SDS011;34485;51.536;3.816;2023-07-02T06:25:50;9.50;;;4.23;;
48685;SDS011;34485;51.536;3.816;2023-07-02T06:28:24;11.40;;;3.92;;
48685;SDS011;34485;51.536;3.816;2023-07-02T06:30:53;8.50;;;4.20;;
48685;SDS011;34485;51.536;3.816;2023-07-02T06:33:18;9.90;;;4.43;;
48685;SDS011;34485;51.536;3.816;2023-07-02T06:35:44;7.65;;;4.65;;
48685;SDS011;34485;51.536;3.816;2023-07-02T06:38:09;5.40;;;3.43;;
48685;SDS011;34485;51.536;3.816;2023-07-02T06:40:35;8.30;;;3.83;;
48685;SDS011;34485;51.536;3.816;2023-07-02T06:43:00;15.80;;;4.50;;
48685;SDS011;34485;51.536;3.816;2023-07-02T06:45:26;8.50;;;3.73;;
48685;SDS011;34485;51.536;3.816;2023-07-02T06:47:51;8.27;;;4.53;;
48685;SDS011;34485;51.536;3.816;2023-07-02T06:50:17;11.90;;;4.70;;
48685;SDS011;34485;51.536;3.816;2023-07-02T06:52:43;13.60;;;4.82;;
48685;SDS011;34485;51.536;3.816;2023-07-02T06:55:09;9.30;;;4.90;;
48685;SDS011;34485;51.536;3.816;2023-07-02T06:57:34;9.07;;;4.35;;
48685;SDS011;34485;51.536;3.816;2023-07-02T07:00:00;7.87;;;4.23;;
48685;SDS011;34485;51.536;3.816;2023-07-02T07:02:26;11.80;;;4.60;;
48685;SDS011;34485;51.536;3.816;2023-07-02T07:04:52;10.43;;;4.47;;
48685;SDS011;34485;51.536;3.816;2023-07-02T07:07:18;8.07;;;4.43;;
48685;SDS011;34485;51.536;3.816;2023-07-02T07:09:44;9.13;;;4.63;;
48685;SDS011;34485;51.536;3.816;2023-07-02T07:12:10;14.40;;;4.70;;
48685;SDS011;34485;51.536;3.816;2023-07-02T07:14:35;11.37;;;5.43;;
48685;SDS011;34485;51.536;3.816;2023-07-02T07:17:01;11.87;;;4.57;;
48685;SDS011;34485;51.536;3.816;2023-07-02T07:19:27;11.45;;;4.55;;
48685;SDS011;34485;51.536;3.816;2023-07-02T07:21:53;11.68;;;5.50;;
48685;SDS011;34485;51.536;3.816;2023-07-02T07:24:19;10.67;;;4.73;;
48685;SDS011;34485;51.536;3.816;2023-07-02T07:26:44;14.85;;;5.22;;
48685;SDS011;34485;51.536;3.816;2023-07-02T07:29:10;7.57;;;4.72;;
48685;SDS011;34485;51.536;3.816;2023-07-02T07:31:36;10.67;;;4.63;;
48685;SDS011;34485;51.536;3.816;2023-07-02T07:34:02;11.10;;;5.10;;
48685;SDS011;34485;51.536;3.816;2023-07-02T07:36:27;10.03;;;4.80;;
48685;SDS011;34485;51.536;3.816;2023-07-02T07:38:53;11.97;;;5.10;;
48685;SDS011;34485;51.536;3.816;2023-07-02T07:41:19;10.43;;;4.97;;
48685;SDS011;34485;51.536;3.816;2023-07-02T07:43:44;11.43;;;5.33;;
48685;SDS011;34485;51.536;3.816;2023-07-02T07:46:10;13.15;;;6.90;;
48685;SDS011;34485;51.536;3.816;2023-07-02T07:48:36;9.30;;;5.05;;
48685;SDS011;34485;51.536;3.816;2023-07-02T07:51:02;12.00;;;5.00;;
48685;SDS011;34485;51.536;3.816;2023-07-02T07:53:28;11.18;;;5.72;;
48685;SDS011;34485;51.536;3.816;2023-07-02T07:55:53;17.20;;;6.20;;
48685;SDS011;34485;51.536;3.816;2023-07-02T07:58:19;12.70;;;6.15;;
48685;SDS011;34485;51.536;3.816;2023-07-02T08:00:44;20.73;;;6.60;;
48685;SDS011;34485;51.536;3.816;2023-07-02T08:03:10;16.30;;;7.72;;
48685;SDS011;34485;51.536;3.816;2023-07-02T08:05:36;14.70;;;6.90;;
48685;SDS011;34485;51.536;3.816;2023-07-02T08:08:02;15.35;;;6.45;;
48685;SDS011;34485;51.536;3.816;2023-07-02T08:10:28;15.63;;;6.85;;
48685;SDS011;34485;51.536;3.816;2023-07-02T08:12:53;11.60;;;6.37;;
48685;SDS011;34485;51.536;3.816;2023-07-02T08:15:19;12.17;;;6.87;;
48685;SDS011;34485;51.536;3.816;2023-07-02T08:17:44;12.27;;;6.18;;
48685;SDS011;34485;51.536;3.816;2023-07-02T08:20:11;7.75;;;5.00;;
48685;SDS011;34485;51.536;3.816;2023-07-02T08:22:40;9.73;;;4.93;;
48685;SDS011;34485;51.536;3.816;2023-07-02T08:25:06;13.38;;;5.20;;
48685;SDS011;34485;51.536;3.816;2023-07-02T08:27:32;15.82;;;5.15;;
48685;SDS011;34485;51.536;3.816;2023-07-02T08:29:57;9.52;;;4.85;;
48685;SDS011;34485;51.536;3.816;2023-07-02T08:32:23;12.03;;;5.07;;
48685;SDS011;34485;51.536;3.816;2023-07-02T08:34:49;12.23;;;4.68;;
48685;SDS011;34485;51.536;3.816;2023-07-02T08:37:17;11.05;;;4.93;;
48685;SDS011;34485;51.536;3.816;2023-07-02T08:39:43;7.80;;;4.67;;
48685;SDS011;34485;51.536;3.816;2023-07-02T08:42:09;8.60;;;4.17;;
48685;SDS011;34485;51.536;3.816;2023-07-02T08:44:35;9.50;;;5.00;;
48685;SDS011;34485;51.536;3.816;2023-07-02T08:47:00;11.27;;;4.93;;
48685;SDS011;34485;51.536;3.816;2023-07-02T08:49:27;11.82;;;5.18;;
48685;SDS011;34485;51.536;3.816;2023-07-02T08:51:53;12.90;;;4.90;;
48685;SDS011;34485;51.536;3.816;2023-07-02T08:54:18;8.35;;;4.95;;
48685;SDS011;34485;51.536;3.816;2023-07-02T08:56:46;8.10;;;4.57;;
48685;SDS011;34485;51.536;3.816;2023-07-02T08:59:12;12.77;;;4.93;;
48685;SDS011;34485;51.536;3.816;2023-07-02T09:01:51;9.48;;;4.75;;
48685;SDS011;34485;51.536;3.816;2023-07-02T09:04:18;11.82;;;5.25;;
48685;SDS011;34485;51.536;3.816;2023-07-02T09:06:51;9.48;;;4.90;;
48685;SDS011;34485;51.536;3.816;2023-07-02T09:09:32;8.03;;;4.83;;
48685;SDS011;34485;51.536;3.816;2023-07-02T09:12:09;9.52;;;4.68;;
48685;SDS011;34485;51.536;3.816;2023-07-02T09:14:34;7.93;;;4.75;;
48685;SDS011;34485;51.536;3.816;2023-07-02T09:17:07;10.27;;;5.60;;
48685;SDS011;34485;51.536;3.816;2023-07-02T09:19:34;8.60;;;5.35;;
48685;SDS011;34485;51.536;3.816;2023-07-02T09:22:01;9.43;;;5.03;;
48685;SDS011;34485;51.536;3.816;2023-07-02T09:24:28;8.75;;;5.25;;
48685;SDS011;34485;51.536;3.816;2023-07-02T09:26:56;8.57;;;5.15;;
48685;SDS011;34485;51.536;3.816;2023-07-02T09:29:24;9.90;;;5.37;;
48685;SDS011;34485;51.536;3.816;2023-07-02T09:31:54;7.40;;;5.30;;
48685;SDS011;34485;51.536;3.816;2023-07-02T09:34:26;10.60;;;5.40;;
48685;SDS011;34485;51.536;3.816;2023-07-02T09:36:56;6.82;;;5.45;;
48685;SDS011;34485;51.536;3.816;2023-07-02T09:39:26;6.72;;;4.97;;
48685;SDS011;34485;51.536;3.816;2023-07-02T09:41:57;9.40;;;5.03;;
48685;SDS011;34485;51.536;3.816;2023-07-02T09:44:27;5.60;;;4.93;;
48685;SDS011;34485;51.536;3.816;2023-07-02T09:47:01;6.07;;;4.68;;
48685;SDS011;34485;51.536;3.816;2023-07-02T09:49:38;7.38;;;4.88;;
48685;SDS011;34485;51.536;3.816;2023-07-02T09:52:05;5.82;;;4.80;;
48685;SDS011;34485;51.536;3.816;2023-07-02T09:54:32;7.30;;;5.47;;
48685;SDS011;34485;51.536;3.816;2023-07-02T09:56:58;7.90;;;5.28;;
48685;SDS011;34485;51.536;3.816;2023-07-02T09:59:25;6.45;;;4.82;;
48685;SDS011;34485;51.536;3.816;2023-07-02T10:01:51;9.23;;;4.30;;
48685;SDS011;34485;51.536;3.816;2023-07-02T10:04:18;7.97;;;4.93;;
48685;SDS011;34485;51.536;3.816;2023-07-02T10:06:48;7.00;;;4.15;;
48685;SDS011;34485;51.536;3.816;2023-07-02T10:09:35;5.72;;;4.68;;
48685;SDS011;34485;51.536;3.816;2023-07-02T10:14:46;10.40;;;4.63;;
48685;SDS011;34485;51.536;3.816;2023-07-02T10:17:32;6.07;;;4.25;;
48685;SDS011;34485;51.536;3.816;2023-07-02T10:20:02;6.68;;;4.65;;
48685;SDS011;34485;51.536;3.816;2023-07-02T10:22:41;8.15;;;4.32;;
48685;SDS011;34485;51.536;3.816;2023-07-02T10:27:53;5.10;;;4.60;;
48685;SDS011;34485;51.536;3.816;2023-07-02T10:30:29;6.88;;;4.60;;
48685;SDS011;34485;51.536;3.816;2023-07-02T10:33:06;7.82;;;4.75;;
48685;SDS011;34485;51.536;3.816;2023-07-02T10:35:33;6.95;;;4.88;;
48685;SDS011;34485;51.536;3.816;2023-07-02T10:37:59;9.32;;;4.97;;
48685;SDS011;34485;51.536;3.816;2023-07-02T10:40:25;7.10;;;4.97;;
48685;SDS011;34485;51.536;3.816;2023-07-02T10:42:52;6.97;;;4.32;;
48685;SDS011;34485;51.536;3.816;2023-07-02T10:45:18;7.85;;;4.30;;
48685;SDS011;34485;51.536;3.816;2023-07-02T10:47:45;6.47;;;4.80;;
48685;SDS011;34485;51.536;3.816;2023-07-02T10:50:15;7.07;;;4.50;;
48685;SDS011;34485;51.536;3.816;2023-07-02T10:52:44;9.82;;;4.32;;
48685;SDS011;34485;51.536;3.816;2023-07-02T10:55:15;5.72;;;4.25;;
48685;SDS011;34485;51.536;3.816;2023-07-02T10:57:43;9.77;;;4.78;;
48685;SDS011;34485;51.536;3.816;2023-07-02T11:00:10;7.90;;;3.93;;
48685;SDS011;34485;51.536;3.816;2023-07-02T11:02:36;8.70;;;4.82;;
48685;SDS011;34485;51.536;3.816;2023-07-02T11:05:02;5.82;;;4.55;;
48685;SDS011;34485;51.536;3.816;2023-07-02T11:07:31;8.75;;;4.63;;
48685;SDS011;34485;51.536;3.816;2023-07-02T11:09:57;8.18;;;4.55;;
48685;SDS011;34485;51.536;3.816;2023-07-02T11:12:29;7.53;;;4.77;;
48685;SDS011;34485;51.536;3.816;2023-07-02T11:15:06;10.50;;;4.60;;
48685;SDS011;34485;51.536;3.816;2023-07-02T11:17:36;7.00;;;4.53;;
48685;SDS011;34485;51.536;3.816;2023-07-02T11:20:02;9.57;;;4.45;;
48685;SDS011;34485;51.536;3.816;2023-07-02T11:22:32;6.17;;;4.30;;
48685;SDS011;34485;51.536;3.816;2023-07-02T11:25:07;7.72;;;4.40;;
48685;SDS011;34485;51.536;3.816;2023-07-02T11:27:36;5.70;;;3.90;;
48685;SDS011;34485;51.536;3.816;2023-07-02T11:30:02;10.63;;;4.00;;
48685;SDS011;34485;51.536;3.816;2023-07-02T11:32:28;7.47;;;4.63;;
48685;SDS011;34485;51.536;3.816;2023-07-02T11:34:53;8.13;;;4.63;;
48685;SDS011;34485;51.536;3.816;2023-07-02T11:37:20;6.27;;;4.47;;
48685;SDS011;34485;51.536;3.816;2023-07-02T11:39:45;7.18;;;4.25;;
48685;SDS011;34485;51.536;3.816;2023-07-02T11:42:11;6.10;;;3.90;;
48685;SDS011;34485;51.536;3.816;2023-07-02T11:44:37;9.50;;;4.90;;
48685;SDS011;34485;51.536;3.816;2023-07-02T11:47:03;12.43;;;4.82;;
48685;SDS011;34485;51.536;3.816;2023-07-02T11:49:28;10.30;;;5.23;;
48685;SDS011;34485;51.536;3.816;2023-07-02T11:51:54;9.25;;;4.20;;
48685;SDS011;34485;51.536;3.816;2023-07-02T11:54:20;7.73;;;4.80;;
48685;SDS011;34485;51.536;3.816;2023-07-02T11:56:45;6.43;;;3.95;;
48685;SDS011;34485;51.536;3.816;2023-07-02T11:59:11;9.67;;;4.73;;
48685;SDS011;34485;51.536;3.816;2023-07-02T12:01:37;7.78;;;4.18;;
48685;SDS011;34485;51.536;3.816;2023-07-02T12:04:02;9.63;;;4.97;;
48685;SDS011;34485;51.536;3.816;2023-07-02T12:06:30;9.88;;;4.32;;
48685;SDS011;34485;51.536;3.816;2023-07-02T12:08:56;9.68;;;4.60;;
48685;SDS011;34485;51.536;3.816;2023-07-02T12:11:21;7.20;;;4.07;;
48685;SDS011;34485;51.536;3.816;2023-07-02T12:13:47;8.40;;;4.20;;
48685;SDS011;34485;51.536;3.816;2023-07-02T12:16:12;7.47;;;4.30;;
48685;SDS011;34485;51.536;3.816;2023-07-02T12:18:38;9.27;;;4.33;;
48685;SDS011;34485;51.536;3.816;2023-07-02T12:21:04;10.50;;;4.65;;
48685;SDS011;34485;51.536;3.816;2023-07-02T12:23:29;8.67;;;4.00;;
48685;SDS011;34485;51.536;3.816;2023-07-02T12:25:55;6.45;;;4.28;;
48685;SDS011;34485;51.536;3.816;2023-07-02T12:28:20;8.90;;;4.23;;
48685;SDS011;34485;51.536;3.816;2023-07-02T12:30:46;9.70;;;4.30;;
48685;SDS011;34485;51.536;3.816;2023-07-02T12:33:12;5.78;;;3.90;;
48685;SDS011;34485;51.536;3.816;2023-07-02T12:35:38;7.57;;;4.45;;
48685;SDS011;34485;51.536;3.816;2023-07-02T12:38:03;9.87;;;4.20;;
48685;SDS011;34485;51.536;3.816;2023-07-02T12:40:29;8.80;;;4.07;;
48685;SDS011;34485;51.536;3.816;2023-07-02T12:42:54;7.95;;;4.38;;
48685;SDS011;34485;51.536;3.816;2023-07-02T12:45:21;8.32;;;3.83;;
48685;SDS011;34485;51.536;3.816;2023-07-02T12:47:47;6.97;;;3.63;;
48685;SDS011;34485;51.536;3.816;2023-07-02T12:50:13;6.25;;;3.50;;
48685;SDS011;34485;51.536;3.816;2023-07-02T12:52:39;8.70;;;4.10;;
48685;SDS011;34485;51.536;3.816;2023-07-02T12:55:05;6.90;;;3.97;;
48685;SDS011;34485;51.536;3.816;2023-07-02T12:57:31;7.30;;;4.17;;
48685;SDS011;34485;51.536;3.816;2023-07-02T12:59:56;10.57;;;3.50;;
48685;SDS011;34485;51.536;3.816;2023-07-02T13:02:23;9.93;;;4.00;;
48685;SDS011;34485;51.536;3.816;2023-07-02T13:04:49;7.70;;;4.17;;
48685;SDS011;34485;51.536;3.816;2023-07-02T13:07:15;8.95;;;4.00;;
48685;SDS011;34485;51.536;3.816;2023-07-02T13:09:41;12.00;;;3.28;;
48685;SDS011;34485;51.536;3.816;2023-07-02T13:12:07;9.67;;;4.43;;
48685;SDS011;34485;51.536;3.816;2023-07-02T13:14:33;7.50;;;3.83;;
48685;SDS011;34485;51.536;3.816;2023-07-02T13:16:59;8.85;;;3.88;;
48685;SDS011;34485;51.536;3.816;2023-07-02T13:19:25;6.00;;;3.77;;
48685;SDS011;34485;51.536;3.816;2023-07-02T13:21:51;7.35;;;3.80;;
48685;SDS011;34485;51.536;3.816;2023-07-02T13:24:16;10.00;;;4.40;;
48685;SDS011;34485;51.536;3.816;2023-07-02T13:26:42;8.55;;;4.03;;
48685;SDS011;34485;51.536;3.816;2023-07-02T13:29:07;8.33;;;4.00;;
48685;SDS011;34485;51.536;3.816;2023-07-02T13:31:33;7.75;;;4.20;;
48685;SDS011;34485;51.536;3.816;2023-07-02T13:33:59;5.73;;;3.83;;
48685;SDS011;34485;51.536;3.816;2023-07-02T13:36:24;4.78;;;3.80;;
48685;SDS011;34485;51.536;3.816;2023-07-02T13:38:50;10.87;;;5.03;;
48685;SDS011;34485;51.536;3.816;2023-07-02T13:41:15;6.67;;;4.10;;
48685;SDS011;34485;51.536;3.816;2023-07-02T13:43:41;8.70;;;4.23;;
48685;SDS011;34485;51.536;3.816;2023-07-02T13:46:07;8.97;;;4.40;;
48685;SDS011;34485;51.536;3.816;2023-07-02T13:48:32;8.93;;;4.43;;
48685;SDS011;34485;51.536;3.816;2023-07-02T13:50:59;7.45;;;4.50;;
48685;SDS011;34485;51.536;3.816;2023-07-02T13:53:25;8.73;;;4.73;;
48685;SDS011;34485;51.536;3.816;2023-07-02T13:55:51;8.23;;;4.67;;
48685;SDS011;34485;51.536;3.816;2023-07-02T13:58:16;9.82;;;4.95;;
48685;SDS011;34485;51.536;3.816;2023-07-02T14:00:42;11.53;;;4.63;;
48685;SDS011;34485;51.536;3.816;2023-07-02T14:03:08;10.85;;;4.13;;
48685;SDS011;34485;51.536;3.816;2023-07-02T14:05:33;8.23;;;4.40;;
48685;SDS011;34485;51.536;3.816;2023-07-02T14:07:59;7.87;;;4.73;;
48685;SDS011;34485;51.536;3.816;2023-07-02T14:10:24;10.87;;;4.87;;
48685;SDS011;34485;51.536;3.816;2023-07-02T14:12:50;9.87;;;5.20;;
48685;SDS011;34485;51.536;3.816;2023-07-02T14:15:15;13.48;;;5.18;;
48685;SDS011;34485;51.536;3.816;2023-07-02T14:17:41;9.37;;;4.30;;
48685;SDS011;34485;51.536;3.816;2023-07-02T14:20:07;11.90;;;4.47;;
48685;SDS011;34485;51.536;3.816;2023-07-02T14:22:33;14.20;;;5.47;;
48685;SDS011;34485;51.536;3.816;2023-07-02T14:24:59;11.43;;;5.10;;
48685;SDS011;34485;51.536;3.816;2023-07-02T14:27:24;13.73;;;5.37;;
48685;SDS011;34485;51.536;3.816;2023-07-02T14:29:50;14.50;;;5.47;;
48685;SDS011;34485;51.536;3.816;2023-07-02T14:32:16;10.27;;;5.30;;
48685;SDS011;34485;51.536;3.816;2023-07-02T14:34:42;7.70;;;4.43;;
48685;SDS011;34485;51.536;3.816;2023-07-02T14:37:07;10.63;;;5.10;;
48685;SDS011;34485;51.536;3.816;2023-07-02T14:39:33;11.43;;;4.70;;
48685;SDS011;34485;51.536;3.816;2023-07-02T14:41:59;10.97;;;5.60;;
48685;SDS011;34485;51.536;3.816;2023-07-02T14:44:24;7.82;;;4.47;;